sensor_id;sensor_type;location;lat;lon;timestamp;pressure;altitude;pressure_sealevel;temperature;humidity
50057;BME280;36875;49.468;11.200;2023-02-18T00:01:53;98550.53;;;22.66;33.93
50057;BME280;36875;49.468;11.200;2023-02-18T00:04:18;98546.50;;;22.63;34.26
50057;BME280;36875;49.468;11.200;2023-02-18T00:06:44;98558.41;;;22.59;34.12
50057;BME280;36875;49.468;11.200;2023-02-18T00:09:09;98545.63;;;22.54;34.21
50057;BME280;36875;49.468;11.200;2023-02-18T00:11:36;98547.56;;;22.54;34.18
50057;BME280;36875;49.468;11.200;2023-02-18T00:14:04;98553.69;;;22.50;34.19
50057;BME280;36875;49.468;11.200;2023-02-18T00:16:31;98540.38;;;22.44;34.25
50057;BME280;36875;49.468;11.200;2023-02-18T00:18:58;98546.69;;;22.44;34.25
50057;BME280;36875;49.468;11.200;2023-02-18T00:21:24;98541.66;;;22.38;34.34
50057;BME280;36875;49.468;11.200;2023-02-18T00:23:50;98542.56;;;22.33;34.31
50057;BME280;36875;49.468;11.200;2023-02-18T00:26:17;98541.47;;;22.34;34.33
50057;BME280;36875;49.468;11.200;2023-02-18T00:28:43;98544.31;;;22.29;34.43
50057;BME280;36875;49.468;11.200;2023-02-18T00:31:12;98544.63;;;22.27;34.42
50057;BME280;36875;49.468;11.200;2023-02-18T00:33:39;98536.19;;;22.24;34.29
50057;BME280;36875;49.468;11.200;2023-02-18T00:36:08;98543.72;;;22.18;34.37
50057;BME280;36875;49.468;11.200;2023-02-18T00:38:34;98547.59;;;22.17;34.40
50057;BME280;36875;49.468;11.200;2023-02-18T00:41:00;98539.47;;;22.12;34.38
50057;BME280;36875;49.468;11.200;2023-02-18T00:43:26;98549.34;;;22.13;34.75
50057;BME280;36875;49.468;11.200;2023-02-18T00:45:52;98548.31;;;22.09;34.61
50057;BME280;36875;49.468;11.200;2023-02-18T00:48:17;98546.72;;;22.08;34.63
50057;BME280;36875;49.468;11.200;2023-02-18T00:50:44;98548.13;;;22.05;34.77
50057;BME280;36875;49.468;11.200;2023-02-18T00:53:10;98550.38;;;22.03;34.57
50057;BME280;36875;49.468;11.200;2023-02-18T00:55:38;98546.31;;;22.01;34.60
50057;BME280;36875;49.468;11.200;2023-02-18T00:58:03;98541.16;;;21.99;34.82
50057;BME280;36875;49.468;11.200;2023-02-18T01:00:29;98551.13;;;21.95;34.69
50057;BME280;36875;49.468;11.200;2023-02-18T01:02:54;98546.25;;;21.92;34.88
50057;BME280;36875;49.468;11.200;2023-02-18T01:05:19;98550.41;;;21.89;34.77
50057;BME280;36875;49.468;11.200;2023-02-18T01:07:49;98558.94;;;21.88;34.62
50057;BME280;36875;49.468;11.200;2023-02-18T01:10:15;98549.09;;;21.87;34.81
50057;BME280;36875;49.468;11.200;2023-02-18T01:12:40;98541.00;;;21.82;34.69
50057;BME280;36875;49.468;11.200;2023-02-18T01:15:07;98547.09;;;21.79;34.60
50057;BME280;36875;49.468;11.200;2023-02-18T01:17:33;98548.38;;;21.81;34.75
50057;BME280;36875;49.468;11.200;2023-02-18T01:19:58;98539.19;;;21.77;34.92
50057;BME280;36875;49.468;11.200;2023-02-18T01:22:25;98539.47;;;21.75;34.76
50057;BME280;36875;49.468;11.200;2023-02-18T01:24:52;98553.78;;;21.72;34.90
50057;BME280;36875;49.468;11.200;2023-02-18T01:27:17;98544.56;;;21.68;35.07
50057;BME280;36875;49.468;11.200;2023-02-18T01:29:43;98544.56;;;21.68;34.74
50057;BME280;36875;49.468;11.200;2023-02-18T01:32:08;98551.47;;;21.66;34.92
50057;BME280;36875;49.468;11.200;2023-02-18T01:34:34;98543.06;;;21.62;35.05
50057;BME280;36875;49.468;11.200;2023-02-18T01:36:59;98547.41;;;21.63;35.09
50057;BME280;36875;49.468;11.200;2023-02-18T01:39:26;98549.63;;;21.61;35.20
50057;BME280;36875;49.468;11.200;2023-02-18T01:41:53;98547.03;;;21.56;35.12
50057;BME280;36875;49.468;11.200;2023-02-18T01:44:21;98555.84;;;21.53;35.38
50057;BME280;36875;49.468;11.200;2023-02-18T01:46:47;98547.63;;;21.53;34.97
50057;BME280;36875;49.468;11.200;2023-02-18T01:49:18;98542.75;;;21.50;35.43
50057;BME280;36875;49.468;11.200;2023-02-18T01:51:47;98547.72;;;21.48;35.10
50057;BME280;36875;49.468;11.200;2023-02-18T01:54:17;98550.78;;;21.46;35.09
50057;BME280;36875;49.468;11.200;2023-02-18T01:56:47;98546.19;;;21.42;35.36
50057;BME280;36875;49.468;11.200;2023-02-18T01:59:17;98552.47;;;21.42;35.29
50057;BME280;36875;49.468;11.200;2023-02-18T02:01:45;98550.03;;;21.41;35.12
50057;BME280;36875;49.468;11.200;2023-02-18T02:04:11;98552.56;;;21.37;35.33
50057;BME280;36875;49.468;11.200;2023-02-18T02:06:37;98546.28;;;21.36;35.36
50057;BME280;36875;49.468;11.200;2023-02-18T02:09:04;98536.03;;;21.28;35.41
50057;BME280;36875;49.468;11.200;2023-02-18T02:11:44;98533.50;;;21.32;35.23
50057;BME280;36875;49.468;11.200;2023-02-18T02:14:24;98534.63;;;21.31;35.27
50057;BME280;36875;49.468;11.200;2023-02-18T02:17:00;98529.25;;;21.26;35.36
50057;BME280;36875;49.468;11.200;2023-02-18T02:19:45;98524.09;;;21.24;35.23
50057;BME280;36875;49.468;11.200;2023-02-18T02:22:33;98522.97;;;21.25;35.38
50057;BME280;36875;49.468;11.200;2023-02-18T02:25:18;98523.88;;;21.21;35.27
50057;BME280;36875;49.468;11.200;2023-02-18T02:28:19;98517.59;;;21.20;35.46
50057;BME280;36875;49.468;11.200;2023-02-18T02:31:06;98521.78;;;21.17;35.51
50057;BME280;36875;49.468;11.200;2023-02-18T02:33:57;98522.56;;;21.18;35.45
50057;BME280;36875;49.468;11.200;2023-02-18T02:36:30;98512.84;;;21.12;35.46
50057;BME280;36875;49.468;11.200;2023-02-18T02:39:05;98512.53;;;21.13;35.45
50057;BME280;36875;49.468;11.200;2023-02-18T02:41:42;98499.75;;;21.09;35.36
50057;BME280;36875;49.468;11.200;2023-02-18T02:44:19;98499.56;;;21.05;35.74
50057;BME280;36875;49.468;11.200;2023-02-18T02:46:46;98499.56;;;21.05;35.51
50057;BME280;36875;49.468;11.200;2023-02-18T02:49:20;98499.34;;;21.02;35.76
50057;BME280;36875;49.468;11.200;2023-02-18T02:51:53;98492.88;;;20.97;35.87
50057;BME280;36875;49.468;11.200;2023-02-18T02:54:25;98479.59;;;20.91;35.70
50057;BME280;36875;49.468;11.200;2023-02-18T02:57:04;98493.69;;;20.98;35.53
50057;BME280;36875;49.468;11.200;2023-02-18T02:59:30;98489.00;;;20.98;35.81
50057;BME280;36875;49.468;11.200;2023-02-18T03:02:07;98485.47;;;20.98;35.75
50057;BME280;36875;49.468;11.200;2023-02-18T03:10:39;98479.59;;;20.91;35.80
50057;BME280;36875;49.468;11.200;2023-02-18T03:13:15;98485.66;;;20.88;35.58
50057;BME280;36875;49.468;11.200;2023-02-18T03:15:48;98482.13;;;20.87;35.92
50057;BME280;36875;49.468;11.200;2023-02-18T03:18:20;98473.41;;;20.85;35.58
50057;BME280;36875;49.468;11.200;2023-02-18T03:20:52;98476.75;;;20.82;35.60
50057;BME280;36875;49.468;11.200;2023-02-18T03:23:24;98478.16;;;20.79;35.55
50057;BME280;36875;49.468;11.200;2023-02-18T03:25:51;98480.59;;;20.81;35.89
50057;BME280;36875;49.468;11.200;2023-02-18T03:28:18;98469.75;;;20.76;35.72
50057;BME280;36875;49.468;11.200;2023-02-18T03:30:47;98476.03;;;20.76;35.96
50057;BME280;36875;49.468;11.200;2023-02-18T03:33:17;98485.66;;;20.74;35.57
50057;BME280;36875;49.468;11.200;2023-02-18T03:35:46;98485.66;;;20.74;35.86
50057;BME280;36875;49.468;11.200;2023-02-18T03:38:15;98487.88;;;20.72;35.62
50057;BME280;36875;49.468;11.200;2023-02-18T03:40:43;98475.94;;;20.68;35.60
50057;BME280;36875;49.468;11.200;2023-02-18T03:43:09;98485.25;;;20.67;35.88
50057;BME280;36875;49.468;11.200;2023-02-18T03:45:35;98485.25;;;20.67;35.73
50057;BME280;36875;49.468;11.200;2023-02-18T03:48:00;98484.44;;;20.66;35.73
50057;BME280;36875;49.468;11.200;2023-02-18T03:50:26;98490.19;;;20.65;35.83
50057;BME280;36875;49.468;11.200;2023-02-18T03:52:52;98493.22;;;20.63;35.80
50057;BME280;36875;49.468;11.200;2023-02-18T03:55:20;98492.44;;;20.63;35.69
50057;BME280;36875;49.468;11.200;2023-02-18T03:57:47;98482.84;;;20.60;35.87
50057;BME280;36875;49.468;11.200;2023-02-18T04:00:14;98485.88;;;20.58;35.63
50057;BME280;36875;49.468;11.200;2023-02-18T04:02:40;98487.81;;;20.58;35.89
50057;BME280;36875;49.468;11.200;2023-02-18T04:05:06;98498.25;;;20.56;35.83
50057;BME280;36875;49.468;11.200;2023-02-18T04:07:32;98489.31;;;20.50;36.08
50057;BME280;36875;49.468;11.200;2023-02-18T04:09:58;98488.75;;;20.53;36.06
50057;BME280;36875;49.468;11.200;2023-02-18T04:12:23;98489.53;;;20.54;35.78
50057;BME280;36875;49.468;11.200;2023-02-18T04:14:50;98489.31;;;20.50;36.12
50057;BME280;36875;49.468;11.200;2023-02-18T04:17:16;98478.56;;;20.40;35.79
50057;BME280;36875;49.468;11.200;2023-02-18T04:19:41;98476.16;;;20.38;36.13
50057;BME280;36875;49.468;11.200;2023-02-18T04:22:07;98489.91;;;20.47;36.08
50057;BME280;36875;49.468;11.200;2023-02-18T04:24:32;98486.16;;;20.43;36.05
50057;BME280;36875;49.468;11.200;2023-02-18T04:26:58;98496.31;;;20.42;36.14
50057;BME280;36875;49.468;11.200;2023-02-18T04:29:23;98491.63;;;20.43;36.11
50057;BME280;36875;49.468;11.200;2023-02-18T04:31:50;98485.97;;;20.39;35.93
50057;BME280;36875;49.468;11.200;2023-02-18T04:34:15;98486.75;;;20.40;35.99
50057;BME280;36875;49.468;11.200;2023-02-18T04:36:41;98484.44;;;20.33;36.11
50057;BME280;36875;49.468;11.200;2023-02-18T04:39:06;98481.63;;;20.38;36.13
50057;BME280;36875;49.468;11.200;2023-02-18T04:41:32;98488.47;;;20.36;36.36
50057;BME280;36875;49.468;11.200;2023-02-18T04:43:57;98494.25;;;20.34;36.20
50057;BME280;36875;49.468;11.200;2023-02-18T04:46:23;98489.09;;;20.33;35.89
50057;BME280;36875;49.468;11.200;2023-02-18T04:48:50;98489.09;;;20.33;35.89
50057;BME280;36875;49.468;11.200;2023-02-18T04:51:16;98492.94;;;20.32;36.03
50057;BME280;36875;49.468;11.200;2023-02-18T04:53:41;98496.75;;;20.31;35.91
50057;BME280;36875;49.468;11.200;2023-02-18T04:56:09;98491.28;;;20.31;35.82
50057;BME280;36875;49.468;11.200;2023-02-18T04:58:34;98491.91;;;20.28;35.85
50057;BME280;36875;49.468;11.200;2023-02-18T05:01:00;98488.66;;;20.26;36.02
50057;BME280;36875;49.468;11.200;2023-02-18T05:03:27;98489.75;;;20.25;36.11
50057;BME280;36875;49.468;11.200;2023-02-18T05:05:54;98487.84;;;20.25;36.21
50057;BME280;36875;49.468;11.200;2023-02-18T05:08:19;98493.69;;;20.18;36.07
50057;BME280;36875;49.468;11.200;2023-02-18T05:10:45;98493.91;;;20.22;36.34
50057;BME280;36875;49.468;11.200;2023-02-18T05:13:10;98472.00;;;20.08;36.22
50057;BME280;36875;49.468;11.200;2023-02-18T05:15:36;98496.44;;;20.18;36.04
50057;BME280;36875;49.468;11.200;2023-02-18T05:18:01;98492.06;;;20.17;36.28
50057;BME280;36875;49.468;11.200;2023-02-18T05:20:27;98480.91;;;20.14;36.28
50057;BME280;36875;49.468;11.200;2023-02-18T05:22:54;98484.16;;;20.16;36.03
50057;BME280;36875;49.468;11.200;2023-02-18T05:25:20;98489.41;;;20.12;35.92
50057;BME280;36875;49.468;11.200;2023-02-18T05:27:46;98480.69;;;20.10;36.11
50057;BME280;36875;49.468;11.200;2023-02-18T05:30:12;98486.16;;;20.10;35.89
50057;BME280;36875;49.468;11.200;2023-02-18T05:32:37;98482.13;;;20.08;36.01
50057;BME280;36875;49.468;11.200;2023-02-18T05:35:03;98477.47;;;20.08;36.12
50057;BME280;36875;49.468;11.200;2023-02-18T05:37:29;98466.91;;;20.01;36.21
50057;BME280;36875;49.468;11.200;2023-02-18T05:39:56;98481.91;;;20.04;36.39
50057;BME280;36875;49.468;11.200;2023-02-18T05:42:21;98484.63;;;20.04;36.41
50057;BME280;36875;49.468;11.200;2023-02-18T05:44:47;98480.25;;;20.03;36.32
50057;BME280;36875;49.468;11.200;2023-02-18T05:47:13;98485.22;;;20.01;36.12
50057;BME280;36875;49.468;11.200;2023-02-18T05:49:40;98481.97;;;19.99;36.30
50057;BME280;36875;49.468;11.200;2023-02-18T05:52:07;98478.44;;;19.98;36.16
50057;BME280;36875;49.468;11.200;2023-02-18T05:54:33;98482.25;;;19.97;36.33
50057;BME280;36875;49.468;11.200;2023-02-18T05:57:01;98465.66;;;19.94;36.31
50057;BME280;36875;49.468;11.200;2023-02-18T05:59:27;98465.38;;;19.95;36.46
50057;BME280;36875;49.468;11.200;2023-02-18T06:01:53;98467.88;;;19.92;36.46
50057;BME280;36875;49.468;11.200;2023-02-18T06:04:19;98474.38;;;19.96;36.60
50057;BME280;36875;49.468;11.200;2023-02-18T06:06:45;98480.44;;;19.93;36.57
50057;BME280;36875;49.468;11.200;2023-02-18T06:09:10;98473.63;;;19.90;36.45
50057;BME280;36875;49.468;11.200;2023-02-18T06:11:36;98482.66;;;19.91;36.29
50057;BME280;36875;49.468;11.200;2023-02-18T06:14:03;98470.69;;;19.87;36.58
50057;BME280;36875;49.468;11.200;2023-02-18T06:16:29;98475.03;;;19.88;36.51
50057;BME280;36875;49.468;11.200;2023-02-18T06:18:55;98472.31;;;19.88;36.53
50057;BME280;36875;49.468;11.200;2023-02-18T06:21:20;98478.06;;;19.86;36.37
50057;BME280;36875;49.468;11.200;2023-02-18T06:23:46;98462.66;;;19.76;36.70
50057;BME280;36875;49.468;11.200;2023-02-18T06:26:12;98477.56;;;19.84;36.25
50057;BME280;36875;49.468;11.200;2023-02-18T06:28:37;98484.44;;;19.81;36.33
50057;BME280;36875;49.468;11.200;2023-02-18T06:31:04;98484.44;;;19.81;36.63
50057;BME280;36875;49.468;11.200;2023-02-18T06:33:30;98464.47;;;19.81;36.44
50057;BME280;36875;49.468;11.200;2023-02-18T06:35:57;98460.16;;;19.80;36.60
50057;BME280;36875;49.468;11.200;2023-02-18T06:38:23;98447.88;;;19.77;36.87
50057;BME280;36875;49.468;11.200;2023-02-18T06:40:49;98461.53;;;19.77;36.88
50057;BME280;36875;49.468;11.200;2023-02-18T06:43:14;98454.47;;;19.76;36.32
50057;BME280;36875;49.468;11.200;2023-02-18T06:45:40;98452.56;;;19.72;36.75
50057;BME280;36875;49.468;11.200;2023-02-18T06:48:07;98450.13;;;19.70;36.88
50057;BME280;36875;49.468;11.200;2023-02-18T06:50:32;98454.25;;;19.73;36.60
50057;BME280;36875;49.468;11.200;2023-02-18T06:52:58;98455.59;;;19.70;36.91
50057;BME280;36875;49.468;11.200;2023-02-18T06:55:24;98450.97;;;19.71;36.39
50057;BME280;36875;49.468;11.200;2023-02-18T06:57:49;98443.88;;;19.70;36.37
50057;BME280;36875;49.468;11.200;2023-02-18T07:00:15;98438.19;;;19.66;36.55
50057;BME280;36875;49.468;11.200;2023-02-18T07:02:41;98437.16;;;19.62;36.53
50057;BME280;36875;49.468;11.200;2023-02-18T07:05:08;98440.13;;;19.65;36.88
50057;BME280;36875;49.468;11.200;2023-02-18T07:07:34;98432.22;;;19.64;36.56
50057;BME280;36875;49.468;11.200;2023-02-18T07:10:00;98440.41;;;19.64;36.46
50057;BME280;36875;49.468;11.200;2023-02-18T07:12:26;98443.94;;;19.64;36.52
50057;BME280;36875;49.468;11.200;2023-02-18T07:14:51;98435.03;;;19.59;36.54
50057;BME280;36875;49.468;11.200;2023-02-18T07:17:17;98436.38;;;19.61;36.64
50057;BME280;36875;49.468;11.200;2023-02-18T07:19:43;98439.38;;;19.60;36.94
50057;BME280;36875;49.468;11.200;2023-02-18T07:22:10;98431.47;;;19.58;36.48
50057;BME280;36875;49.468;11.200;2023-02-18T07:24:35;98437.75;;;19.59;36.58
50057;BME280;36875;49.468;11.200;2023-02-18T07:27:01;98442.69;;;19.57;36.79
50057;BME280;36875;49.468;11.200;2023-02-18T07:29:26;98437.22;;;19.57;36.63
50057;BME280;36875;49.468;11.200;2023-02-18T07:31:52;98432.38;;;19.54;36.97
50057;BME280;36875;49.468;11.200;2023-02-18T07:34:18;98439.75;;;19.53;36.65
50057;BME280;36875;49.468;11.200;2023-02-18T07:36:43;98436.22;;;19.53;36.67
50057;BME280;36875;49.468;11.200;2023-02-18T07:39:10;98441.16;;;19.51;37.05
50057;BME280;36875;49.468;11.200;2023-02-18T07:41:36;98433.31;;;19.44;36.75
50057;BME280;36875;49.468;11.200;2023-02-18T07:44:02;98440.34;;;19.50;36.85
50057;BME280;36875;49.468;11.200;2023-02-18T07:46:27;98436.28;;;19.48;37.10
50057;BME280;36875;49.468;11.200;2023-02-18T07:48:53;98431.94;;;19.47;37.06
50057;BME280;36875;49.468;11.200;2023-02-18T07:51:18;98433.84;;;19.46;36.78
50057;BME280;36875;49.468;11.200;2023-02-18T07:53:44;98428.38;;;19.46;36.94
50057;BME280;36875;49.468;11.200;2023-02-18T07:56:11;98430.59;;;19.44;36.79
50057;BME280;36875;49.468;11.200;2023-02-18T07:58:37;98432.81;;;19.42;37.07
50057;BME280;36875;49.468;11.200;2023-02-18T08:01:04;98427.94;;;19.39;36.84
50057;BME280;36875;49.468;11.200;2023-02-18T08:03:31;98430.38;;;19.40;37.10
50057;BME280;36875;49.468;11.200;2023-02-18T08:05:57;98426.03;;;19.39;37.07
50057;BME280;36875;49.468;11.200;2023-02-18T08:08:25;98419.75;;;19.39;37.46
50057;BME280;36875;49.468;11.200;2023-02-18T08:10:52;98420.88;;;19.38;37.65
50057;BME280;36875;49.468;11.200;2023-02-18T08:13:19;98424.41;;;19.38;37.67
50057;BME280;36875;49.468;11.200;2023-02-18T08:15:45;98414.59;;;19.37;37.88
50057;BME280;36875;49.468;11.200;2023-02-18T08:18:14;98418.44;;;19.36;37.53
50057;BME280;36875;49.468;11.200;2023-02-18T08:20:40;98418.44;;;19.36;37.78
50057;BME280;36875;49.468;11.200;2023-02-18T08:23:05;98412.97;;;19.36;37.68
50057;BME280;36875;49.468;11.200;2023-02-18T08:25:31;98421.44;;;19.35;38.03
50057;BME280;36875;49.468;11.200;2023-02-18T08:27:58;98412.47;;;19.34;38.02
50057;BME280;36875;49.468;11.200;2023-02-18T08:30:25;98402.34;;;19.35;38.11
50057;BME280;36875;49.468;11.200;2023-02-18T08:32:50;98398.00;;;19.34;38.69
50057;BME280;36875;49.468;11.200;2023-02-18T08:35:16;98389.94;;;19.42;38.31
50057;BME280;36875;49.468;11.200;2023-02-18T08:37:42;98388.28;;;19.47;38.85
50057;BME280;36875;49.468;11.200;2023-02-18T08:40:08;98385.53;;;19.47;38.58
50057;BME280;36875;49.468;11.200;2023-02-18T08:42:34;98395.34;;;19.48;39.02
50057;BME280;36875;49.468;11.200;2023-02-18T08:44:59;98393.72;;;19.47;39.03
50057;BME280;36875;49.468;11.200;2023-02-18T08:47:26;98387.72;;;19.44;38.86
50057;BME280;36875;49.468;11.200;2023-02-18T08:49:52;98382.88;;;19.41;39.60
50057;BME280;36875;49.468;11.200;2023-02-18T08:52:17;98393.00;;;19.41;39.05
50057;BME280;36875;49.468;11.200;2023-02-18T08:54:43;98392.16;;;19.40;39.25
50057;BME280;36875;49.468;11.200;2023-02-18T08:57:08;98382.06;;;19.41;39.83
50057;BME280;36875;49.468;11.200;2023-02-18T08:59:34;98377.03;;;19.48;40.01
50057;BME280;36875;49.468;11.200;2023-02-18T09:01:59;98369.97;;;19.47;39.58
50057;BME280;36875;49.468;11.200;2023-02-18T09:04:26;98365.81;;;19.50;39.76
50057;BME280;36875;49.468;11.200;2023-02-18T09:06:52;98333.06;;;19.50;39.93
50057;BME280;36875;49.468;11.200;2023-02-18T09:09:17;98352.75;;;19.65;39.65
50057;BME280;36875;49.468;11.200;2023-02-18T09:11:43;98333.63;;;19.65;39.26
50057;BME280;36875;49.468;11.200;2023-02-18T09:14:09;98337.03;;;19.76;39.45
50057;BME280;36875;49.468;11.200;2023-02-18T09:16:37;98331.38;;;19.87;39.05
50057;BME280;36875;49.468;11.200;2023-02-18T09:19:04;98333.88;;;20.02;39.43
50057;BME280;36875;49.468;11.200;2023-02-18T09:21:31;98333.44;;;20.09;38.98
50057;BME280;36875;49.468;11.200;2023-02-18T09:23:57;98315.44;;;20.21;38.82
50057;BME280;36875;49.468;11.200;2023-02-18T09:26:23;98308.88;;;20.50;38.42
50057;BME280;36875;49.468;11.200;2023-02-18T09:28:51;98302.31;;;20.51;38.44
50057;BME280;36875;49.468;11.200;2023-02-18T09:31:19;98324.44;;;20.91;37.75
50057;BME280;36875;49.468;11.200;2023-02-18T09:33:47;98320.22;;;21.22;37.42
50057;BME280;36875;49.468;11.200;2023-02-18T09:36:13;98333.66;;;21.46;37.04
50057;BME280;36875;49.468;11.200;2023-02-18T09:38:40;98333.91;;;21.81;36.50
50057;BME280;36875;49.468;11.200;2023-02-18T09:41:08;98316.38;;;21.90;36.17
50057;BME280;36875;49.468;11.200;2023-02-18T09:43:40;98331.47;;;22.10;35.97
50057;BME280;36875;49.468;11.200;2023-02-18T09:46:13;98332.78;;;22.44;35.66
50057;BME280;36875;49.468;11.200;2023-02-18T09:48:43;98341.25;;;22.65;35.28
50057;BME280;36875;49.468;11.200;2023-02-18T09:51:10;98330.63;;;22.81;34.93
50057;BME280;36875;49.468;11.200;2023-02-18T09:53:37;98327.81;;;23.13;34.21
50057;BME280;36875;49.468;11.200;2023-02-18T09:56:05;98324.75;;;23.14;34.30
50057;BME280;36875;49.468;11.200;2023-02-18T09:58:32;98332.25;;;22.82;34.62
50057;BME280;36875;49.468;11.200;2023-02-18T10:01:03;98323.97;;;22.65;35.17
50057;BME280;36875;49.468;11.200;2023-02-18T10:03:30;98318.63;;;22.60;35.33
50057;BME280;36875;49.468;11.200;2023-02-18T10:06:05;98320.25;;;22.69;35.51
50057;BME280;36875;49.468;11.200;2023-02-18T10:08:35;98318.78;;;22.55;35.68
50057;BME280;36875;49.468;11.200;2023-02-18T10:11:01;98322.22;;;22.69;35.63
50057;BME280;36875;49.468;11.200;2023-02-18T10:13:29;98322.56;;;22.85;35.20
50057;BME280;36875;49.468;11.200;2023-02-18T10:15:55;98323.84;;;22.87;35.04
50057;BME280;36875;49.468;11.200;2023-02-18T10:18:25;98318.72;;;22.95;35.00
50057;BME280;36875;49.468;11.200;2023-02-18T10:20:57;98311.28;;;22.95;35.01
50057;BME280;36875;49.468;11.200;2023-02-18T10:23:25;98312.13;;;23.13;34.92
50057;BME280;36875;49.468;11.200;2023-02-18T10:25:54;98301.16;;;23.13;35.06
50057;BME280;36875;49.468;11.200;2023-02-18T10:28:23;98306.66;;;23.13;35.06
50057;BME280;36875;49.468;11.200;2023-02-18T10:30:55;98305.81;;;23.21;34.95
50057;BME280;36875;49.468;11.200;2023-02-18T10:33:31;98309.84;;;23.41;34.66
50057;BME280;36875;49.468;11.200;2023-02-18T10:36:23;98289.19;;;23.44;34.82
50057;BME280;36875;49.468;11.200;2023-02-18T10:39:04;98293.88;;;23.35;35.02
50057;BME280;36875;49.468;11.200;2023-02-18T10:41:37;98281.13;;;23.39;34.84
50057;BME280;36875;49.468;11.200;2023-02-18T10:44:14;98272.25;;;23.33;34.78
50057;BME280;36875;49.468;11.200;2023-02-18T10:46:51;98277.25;;;23.22;35.00
50057;BME280;36875;49.468;11.200;2023-02-18T10:49:37;98278.06;;;23.32;34.92
50057;BME280;36875;49.468;11.200;2023-02-18T10:52:05;98277.06;;;23.01;35.55
50057;BME280;36875;49.468;11.200;2023-02-18T10:54:50;98276.25;;;22.92;35.72
50057;BME280;36875;49.468;11.200;2023-02-18T10:57:18;98263.53;;;23.05;34.96
50057;BME280;36875;49.468;11.200;2023-02-18T10:59:54;98275.16;;;23.11;35.49
50057;BME280;36875;49.468;11.200;2023-02-18T11:02:23;98265.47;;;23.04;35.50
50057;BME280;36875;49.468;11.200;2023-02-18T11:04:49;98263.50;;;22.96;35.83
50057;BME280;36875;49.468;11.200;2023-02-18T11:07:18;98260.44;;;23.15;35.76
50057;BME280;36875;49.468;11.200;2023-02-18T11:09:47;98260.28;;;22.94;35.79
50057;BME280;36875;49.468;11.200;2023-02-18T11:12:16;98251.38;;;22.80;36.37
50057;BME280;36875;49.468;11.200;2023-02-18T11:14:45;98254.25;;;22.66;36.52
50057;BME280;36875;49.468;11.200;2023-02-18T11:17:18;98236.34;;;22.77;36.50
50057;BME280;36875;49.468;11.200;2023-02-18T11:19:53;98239.28;;;22.72;36.86
50057;BME280;36875;49.468;11.200;2023-02-18T11:22:21;98244.75;;;22.81;37.09
50057;BME280;36875;49.468;11.200;2023-02-18T11:24:47;98228.94;;;22.69;37.16
50057;BME280;36875;49.468;11.200;2023-02-18T11:27:21;98231.03;;;22.81;37.07
50057;BME280;36875;49.468;11.200;2023-02-18T11:29:51;98220.84;;;22.64;37.13
50057;BME280;36875;49.468;11.200;2023-02-18T11:32:18;98220.66;;;22.51;37.40
50057;BME280;36875;49.468;11.200;2023-02-18T11:34:44;98226.66;;;22.45;37.77
50057;BME280;36875;49.468;11.200;2023-02-18T11:37:16;98229.88;;;22.47;37.26
50057;BME280;36875;49.468;11.200;2023-02-18T11:39:44;98202.69;;;22.19;37.19
50057;BME280;36875;49.468;11.200;2023-02-18T11:42:13;98213.53;;;22.33;37.25
50057;BME280;36875;49.468;11.200;2023-02-18T11:44:42;98220.91;;;22.24;37.38
50057;BME280;36875;49.468;11.200;2023-02-18T11:47:20;98201.22;;;22.22;37.40
50057;BME280;36875;49.468;11.200;2023-02-18T11:50:00;98195.88;;;22.08;37.39
50057;BME280;36875;49.468;11.200;2023-02-18T11:52:32;98203.63;;;22.14;37.48
50057;BME280;36875;49.468;11.200;2023-02-18T11:55:00;98198.25;;;21.92;37.68
50057;BME280;36875;49.468;11.200;2023-02-18T11:57:27;98190.44;;;22.17;37.08
50057;BME280;36875;49.468;11.200;2023-02-18T11:59:53;98190.38;;;21.99;37.34
50057;BME280;36875;49.468;11.200;2023-02-18T12:02:29;98200.97;;;21.92;37.70
50057;BME280;36875;49.468;11.200;2023-02-18T12:05:01;98189.84;;;21.88;37.32
50057;BME280;36875;49.468;11.200;2023-02-18T12:07:33;98192.59;;;21.88;37.56
50057;BME280;36875;49.468;11.200;2023-02-18T12:10:10;98194.31;;;21.75;37.91
50057;BME280;36875;49.468;11.200;2023-02-18T12:12:44;98172.09;;;21.77;37.98
50057;BME280;36875;49.468;11.200;2023-02-18T12:15:15;98180.09;;;21.65;38.21
50057;BME280;36875;49.468;11.200;2023-02-18T12:17:53;98188.66;;;21.72;38.17
50057;BME280;36875;49.468;11.200;2023-02-18T12:20:44;98168.50;;;21.68;38.31
50057;BME280;36875;49.468;11.200;2023-02-18T12:23:22;98170.72;;;21.57;38.27
50057;BME280;36875;49.468;11.200;2023-02-18T12:25:56;98167.66;;;21.59;38.31
50057;BME280;36875;49.468;11.200;2023-02-18T12:28:36;98181.09;;;21.69;38.07
50057;BME280;36875;49.468;11.200;2023-02-18T12:31:19;98172.34;;;21.67;38.50
50057;BME280;36875;49.468;11.200;2023-02-18T12:34:04;98176.53;;;21.64;38.46
50057;BME280;36875;49.468;11.200;2023-02-18T12:36:46;98175.75;;;21.64;38.84
50057;BME280;36875;49.468;11.200;2023-02-18T12:39:29;98177.81;;;21.58;38.53
50057;BME280;36875;49.468;11.200;2023-02-18T12:42:12;98179.09;;;21.61;38.90
50057;BME280;36875;49.468;11.200;2023-02-18T12:44:55;98164.06;;;21.49;39.10
50057;BME280;36875;49.468;11.200;2023-02-18T12:47:30;98162.25;;;21.45;38.97
50057;BME280;36875;49.468;11.200;2023-02-18T12:50:28;98172.03;;;21.37;39.40
50057;BME280;36875;49.468;11.200;2023-02-18T12:53:06;98159.97;;;21.38;39.46
50057;BME280;36875;49.468;11.200;2023-02-18T12:55:50;98162.53;;;21.34;39.26
50057;BME280;36875;49.468;11.200;2023-02-18T12:58:29;98152.25;;;21.40;39.59
50057;BME280;36875;49.468;11.200;2023-02-18T13:04:13;98156.91;;;21.40;39.67
50057;BME280;36875;49.468;11.200;2023-02-18T13:07:11;98153.50;;;21.34;39.74
50057;BME280;36875;49.468;11.200;2023-02-18T13:09:55;98159.28;;;21.32;39.67